Antonino, KS

8:19 PM CDT on July 22, 2014 (GMT -0500)
Rural Ellis Co. (KKSHAYS15) Elev 2077 ft | 38.81 °N, 99.37 °W | Change Station

Current weather conditions updated 1 minute ago

Overcast
Overcast
91.4 °F
Feels Like 98 °F
N
2.7
Wind Variable Wind from SSE

Tomorrow is forecast to be Much Cooler than today.

Today
High -- | Low -- °F
--% Chance of Precip.
Yesterday
High -- | Low -- °F
Precip. -- in
6:30 AM 8:57 PM
Waning Crescent, 14% visible
Pressure 30.09 in
Visibility 10.0 miles
Clouds Clear
Heat Index 98 °F
Dew Point 71 °F
Humidity 52%
Rainfall 0.00 in
Snow Depth Not available.
UV 0 out of 12
Pollen 5.50 out of 12
Air Quality Not available.
Flu Activity Not available.
METAR KHYS 230115Z AUTO 17005KT 10SM CLR 32/18 A3009 RMK AO1

More Conditions Fewer Conditions

Pressure 30.09 in
Visibility 10.0 miles
Clouds Clear
Heat Index 98 °F
Dew Point 71 °F
Humidity 52%
Rainfall 0.00 in
Snow Depth Not available.
UV 0 out of 12
Pollen 5.50 out of 12
Air Quality Not available.
Flu Activity Not available.
METAR KHYS 230115Z AUTO 17005KT 10SM CLR 32/18 A3009 RMK AO1

More Conditions Fewer Conditions

10-Day Weather Forecast

Almanac

Astronomy

Jul. 22, 2014 Rise Set
Actual Time 6:30 AM CDT 8:57 PM CDT
Civil Twilight 5:59 AM CDT 9:27 PM CDT
Nautical Twilight 5:21 AM CDT 10:05 PM CDT
Astronomical Twilight 4:40 AM CDT 10:47 PM CDT
Moon 3:04 AM CDT (7/22) 5:36 PM CDT (7/22)
Length of Visible Light 15h 28m
Length of Day
14h 27m
Tomorrow will be 1m 36s shorter.
Waning Crescent, 14% of the Moon is Illuminated
Today
Waning Crescent
Jul 26
New
Aug 3
First Quarter
Aug 10
Full
Aug 17
Last Quarter

Today's Extremes

State Highs State Lows

Community

WunderPhotos

Upload Photos

1,736,423 photos uploaded!

Nearby

Snow Depth

Station Depth Elevation
No new snow has been reported.

Earthquake Activity

City Distance Mag. Time & Date
Caldwell, Kansas 147 miles 3.6 5:40 AM CDT
2014-07-17
Minimum magnitude displayed is 2.5.

Coastal Water Temperatures

Place Temperature
No Stations Reporting

Nearby Weather Stations

Station Location Temp. Heat Index Dew Point Humidity Wind Precip. Elev Updated Type
Rural Ellis Co., Hays, KS 91.4 °F 98 °F 71 °F 52% SSE  at  2.7 mph - / hr 2077 ft 8:18 PM CDT Normal
MesoWest WALKER , Walker, KS 105 °F 97 °F - - North  at  - 0.00 in / hr 1941 ft 5:20 PM CDT MADIS
Gorham Tele-Com, Gorham, KS 97.7 °F 106 °F 71 °F 43% South  at  3.1 mph 0.00 in / hr 1919 ft 8:19 PM CDT Rapid Fire

Show More Stations Show Fewer Stations